sensor_id;sensor_type;location;lat;lon;timestamp;P1;durP1;ratioP1;P2;durP2;ratioP2
62014;SDS011;47970;52.396;9.586;2023-04-25T00:01:46;11.35;;;2.92;;
62014;SDS011;47970;52.396;9.586;2023-04-25T00:04:11;8.43;;;2.72;;
62014;SDS011;47970;52.396;9.586;2023-04-25T00:06:36;13.13;;;3.17;;
62014;SDS011;47970;52.396;9.586;2023-04-25T00:09:02;12.93;;;2.83;;
62014;SDS011;47970;52.396;9.586;2023-04-25T00:11:28;10.38;;;2.90;;
62014;SDS011;47970;52.396;9.586;2023-04-25T00:13:55;11.25;;;2.78;;
62014;SDS011;47970;52.396;9.586;2023-04-25T00:16:20;10.32;;;3.17;;
62014;SDS011;47970;52.396;9.586;2023-04-25T00:18:45;10.65;;;2.97;;
62014;SDS011;47970;52.396;9.586;2023-04-25T00:21:16;10.50;;;3.03;;
62014;SDS011;47970;52.396;9.586;2023-04-25T00:23:43;11.43;;;2.88;;
62014;SDS011;47970;52.396;9.586;2023-04-25T00:26:08;8.07;;;2.90;;
62014;SDS011;47970;52.396;9.586;2023-04-25T00:28:33;17.52;;;2.83;;
62014;SDS011;47970;52.396;9.586;2023-04-25T00:30:58;7.47;;;2.77;;
62014;SDS011;47970;52.396;9.586;2023-04-25T00:33:24;9.43;;;3.13;;
62014;SDS011;47970;52.396;9.586;2023-04-25T00:35:49;11.07;;;3.17;;
62014;SDS011;47970;52.396;9.586;2023-04-25T00:38:14;12.93;;;3.33;;
62014;SDS011;47970;52.396;9.586;2023-04-25T00:40:40;14.55;;;3.03;;
62014;SDS011;47970;52.396;9.586;2023-04-25T00:43:05;9.93;;;2.90;;
62014;SDS011;47970;52.396;9.586;2023-04-25T00:45:30;12.60;;;2.83;;
62014;SDS011;47970;52.396;9.586;2023-04-25T00:47:56;13.57;;;3.40;;
62014;SDS011;47970;52.396;9.586;2023-04-25T00:50:21;7.68;;;2.75;;
62014;SDS011;47970;52.396;9.586;2023-04-25T00:52:47;9.80;;;2.92;;
62014;SDS011;47970;52.396;9.586;2023-04-25T00:55:12;16.42;;;3.20;;
62014;SDS011;47970;52.396;9.586;2023-04-25T00:57:37;10.25;;;3.05;;
62014;SDS011;47970;52.396;9.586;2023-04-25T01:00:03;10.23;;;2.60;;
62014;SDS011;47970;52.396;9.586;2023-04-25T01:02:30;10.90;;;3.17;;
62014;SDS011;47970;52.396;9.586;2023-04-25T01:04:56;9.05;;;2.95;;
62014;SDS011;47970;52.396;9.586;2023-04-25T01:07:22;6.35;;;2.85;;
62014;SDS011;47970;52.396;9.586;2023-04-25T01:09:47;13.57;;;3.40;;
62014;SDS011;47970;52.396;9.586;2023-04-25T01:12:13;14.82;;;3.33;;
62014;SDS011;47970;52.396;9.586;2023-04-25T01:14:39;13.85;;;3.45;;
62014;SDS011;47970;52.396;9.586;2023-04-25T01:17:04;8.57;;;2.60;;
62014;SDS011;47970;52.396;9.586;2023-04-25T01:19:30;18.23;;;3.60;;
62014;SDS011;47970;52.396;9.586;2023-04-25T01:21:55;12.60;;;3.67;;
62014;SDS011;47970;52.396;9.586;2023-04-25T01:24:21;13.63;;;4.05;;
62014;SDS011;47970;52.396;9.586;2023-04-25T01:26:46;13.48;;;3.67;;
62014;SDS011;47970;52.396;9.586;2023-04-25T01:29:18;8.25;;;3.13;;
62014;SDS011;47970;52.396;9.586;2023-04-25T01:31:44;11.15;;;3.28;;
62014;SDS011;47970;52.396;9.586;2023-04-25T01:34:09;10.20;;;3.35;;
62014;SDS011;47970;52.396;9.586;2023-04-25T01:36:34;13.65;;;3.65;;
62014;SDS011;47970;52.396;9.586;2023-04-25T01:39:00;10.00;;;3.28;;
62014;SDS011;47970;52.396;9.586;2023-04-25T01:41:26;12.40;;;3.50;;
62014;SDS011;47970;52.396;9.586;2023-04-25T01:43:51;12.00;;;3.28;;
62014;SDS011;47970;52.396;9.586;2023-04-25T01:46:16;13.27;;;3.35;;
62014;SDS011;47970;52.396;9.586;2023-04-25T01:48:42;10.75;;;3.60;;
62014;SDS011;47970;52.396;9.586;2023-04-25T01:51:07;10.83;;;3.60;;
62014;SDS011;47970;52.396;9.586;2023-04-25T01:53:32;10.07;;;3.70;;
62014;SDS011;47970;52.396;9.586;2023-04-25T01:55:57;12.75;;;3.80;;
62014;SDS011;47970;52.396;9.586;2023-04-25T01:58:22;12.73;;;3.50;;
62014;SDS011;47970;52.396;9.586;2023-04-25T02:00:48;16.30;;;3.90;;
62014;SDS011;47970;52.396;9.586;2023-04-25T02:03:13;12.43;;;3.77;;
62014;SDS011;47970;52.396;9.586;2023-04-25T02:05:38;9.23;;;3.27;;
62014;SDS011;47970;52.396;9.586;2023-04-25T02:08:04;16.42;;;3.75;;
62014;SDS011;47970;52.396;9.586;2023-04-25T02:10:30;11.88;;;2.72;;
62014;SDS011;47970;52.396;9.586;2023-04-25T02:12:56;10.55;;;2.15;;
62014;SDS011;47970;52.396;9.586;2023-04-25T02:15:21;11.02;;;2.38;;
62014;SDS011;47970;52.396;9.586;2023-04-25T02:17:46;5.97;;;2.10;;
62014;SDS011;47970;52.396;9.586;2023-04-25T02:20:12;16.73;;;2.27;;
62014;SDS011;47970;52.396;9.586;2023-04-25T02:22:37;14.27;;;2.47;;
62014;SDS011;47970;52.396;9.586;2023-04-25T02:25:02;9.75;;;2.83;;
62014;SDS011;47970;52.396;9.586;2023-04-25T02:27:30;8.82;;;2.47;;
62014;SDS011;47970;52.396;9.586;2023-04-25T02:29:55;15.38;;;2.85;;
62014;SDS011;47970;52.396;9.586;2023-04-25T02:32:21;10.55;;;2.40;;
62014;SDS011;47970;52.396;9.586;2023-04-25T02:34:46;12.52;;;2.50;;
62014;SDS011;47970;52.396;9.586;2023-04-25T02:37:11;16.90;;;2.70;;
62014;SDS011;47970;52.396;9.586;2023-04-25T02:39:36;10.55;;;2.65;;
62014;SDS011;47970;52.396;9.586;2023-04-25T02:42:02;15.20;;;2.50;;
62014;SDS011;47970;52.396;9.586;2023-04-25T02:44:27;20.58;;;2.85;;
62014;SDS011;47970;52.396;9.586;2023-04-25T02:46:53;15.47;;;2.50;;
62014;SDS011;47970;52.396;9.586;2023-04-25T02:49:18;17.13;;;2.45;;
62014;SDS011;47970;52.396;9.586;2023-04-25T02:51:43;14.30;;;2.87;;
62014;SDS011;47970;52.396;9.586;2023-04-25T02:54:08;11.07;;;3.15;;
62014;SDS011;47970;52.396;9.586;2023-04-25T02:56:34;12.27;;;2.03;;
62014;SDS011;47970;52.396;9.586;2023-04-25T02:58:59;13.13;;;2.33;;
62014;SDS011;47970;52.396;9.586;2023-04-25T03:01:24;11.57;;;2.17;;
62014;SDS011;47970;52.396;9.586;2023-04-25T03:03:49;12.13;;;2.50;;
62014;SDS011;47970;52.396;9.586;2023-04-25T03:06:14;11.82;;;2.70;;
62014;SDS011;47970;52.396;9.586;2023-04-25T03:08:40;16.80;;;2.28;;
62014;SDS011;47970;52.396;9.586;2023-04-25T03:11:05;15.27;;;2.83;;
62014;SDS011;47970;52.396;9.586;2023-04-25T03:13:31;18.27;;;2.57;;
62014;SDS011;47970;52.396;9.586;2023-04-25T03:15:56;13.93;;;2.63;;
62014;SDS011;47970;52.396;9.586;2023-04-25T03:18:21;17.77;;;2.70;;
62014;SDS011;47970;52.396;9.586;2023-04-25T03:20:46;15.93;;;2.67;;
62014;SDS011;47970;52.396;9.586;2023-04-25T03:23:12;12.82;;;2.40;;
62014;SDS011;47970;52.396;9.586;2023-04-25T03:25:37;11.80;;;2.40;;
62014;SDS011;47970;52.396;9.586;2023-04-25T03:28:02;9.70;;;2.67;;
62014;SDS011;47970;52.396;9.586;2023-04-25T03:30:27;17.52;;;2.75;;
62014;SDS011;47970;52.396;9.586;2023-04-25T03:32:52;10.57;;;2.50;;
62014;SDS011;47970;52.396;9.586;2023-04-25T03:35:18;13.57;;;2.70;;
62014;SDS011;47970;52.396;9.586;2023-04-25T03:37:43;15.63;;;3.53;;
62014;SDS011;47970;52.396;9.586;2023-04-25T03:40:11;15.95;;;2.53;;
62014;SDS011;47970;52.396;9.586;2023-04-25T03:42:36;9.95;;;2.40;;
62014;SDS011;47970;52.396;9.586;2023-04-25T03:45:01;13.70;;;2.33;;
62014;SDS011;47970;52.396;9.586;2023-04-25T03:47:27;10.75;;;2.63;;
62014;SDS011;47970;52.396;9.586;2023-04-25T03:49:52;14.07;;;2.67;;
62014;SDS011;47970;52.396;9.586;2023-04-25T03:52:17;7.30;;;2.40;;
62014;SDS011;47970;52.396;9.586;2023-04-25T03:54:43;17.35;;;2.63;;
62014;SDS011;47970;52.396;9.586;2023-04-25T03:57:08;16.42;;;2.55;;
62014;SDS011;47970;52.396;9.586;2023-04-25T03:59:33;11.17;;;2.97;;
62014;SDS011;47970;52.396;9.586;2023-04-25T04:01:58;15.10;;;2.80;;
62014;SDS011;47970;52.396;9.586;2023-04-25T04:04:23;15.07;;;2.40;;
62014;SDS011;47970;52.396;9.586;2023-04-25T04:06:49;14.43;;;2.90;;
62014;SDS011;47970;52.396;9.586;2023-04-25T04:09:14;13.93;;;2.67;;
62014;SDS011;47970;52.396;9.586;2023-04-25T04:11:40;11.95;;;2.17;;
62014;SDS011;47970;52.396;9.586;2023-04-25T04:14:06;20.85;;;2.80;;
62014;SDS011;47970;52.396;9.586;2023-04-25T04:16:31;22.20;;;3.00;;
62014;SDS011;47970;52.396;9.586;2023-04-25T04:18:56;14.68;;;2.40;;
62014;SDS011;47970;52.396;9.586;2023-04-25T04:21:22;14.47;;;2.90;;
62014;SDS011;47970;52.396;9.586;2023-04-25T04:23:47;14.73;;;2.50;;
62014;SDS011;47970;52.396;9.586;2023-04-25T04:26:12;16.83;;;2.60;;
62014;SDS011;47970;52.396;9.586;2023-04-25T04:28:40;12.30;;;2.47;;
62014;SDS011;47970;52.396;9.586;2023-04-25T04:31:05;13.20;;;2.33;;
62014;SDS011;47970;52.396;9.586;2023-04-25T04:33:30;17.60;;;2.80;;
62014;SDS011;47970;52.396;9.586;2023-04-25T04:35:56;15.02;;;3.10;;
62014;SDS011;47970;52.396;9.586;2023-04-25T04:38:21;15.77;;;2.78;;
62014;SDS011;47970;52.396;9.586;2023-04-25T04:40:46;16.67;;;3.40;;
62014;SDS011;47970;52.396;9.586;2023-04-25T04:43:12;16.15;;;2.60;;
62014;SDS011;47970;52.396;9.586;2023-04-25T04:45:38;26.50;;;4.07;;
62014;SDS011;47970;52.396;9.586;2023-04-25T04:48:05;25.58;;;3.92;;
62014;SDS011;47970;52.396;9.586;2023-04-25T04:50:30;24.17;;;2.55;;
62014;SDS011;47970;52.396;9.586;2023-04-25T04:52:57;23.83;;;3.10;;
62014;SDS011;47970;52.396;9.586;2023-04-25T04:55:22;17.63;;;2.70;;
62014;SDS011;47970;52.396;9.586;2023-04-25T04:57:47;13.67;;;3.03;;
62014;SDS011;47970;52.396;9.586;2023-04-25T05:00:13;18.30;;;3.22;;
62014;SDS011;47970;52.396;9.586;2023-04-25T05:02:38;17.10;;;3.15;;
62014;SDS011;47970;52.396;9.586;2023-04-25T05:05:04;17.35;;;2.88;;
62014;SDS011;47970;52.396;9.586;2023-04-25T05:07:29;17.40;;;2.42;;
62014;SDS011;47970;52.396;9.586;2023-04-25T05:09:55;12.88;;;2.40;;
62014;SDS011;47970;52.396;9.586;2023-04-25T05:12:20;15.70;;;3.20;;
62014;SDS011;47970;52.396;9.586;2023-04-25T05:14:45;11.10;;;2.03;;
62014;SDS011;47970;52.396;9.586;2023-04-25T05:17:10;14.55;;;2.30;;
62014;SDS011;47970;52.396;9.586;2023-04-25T05:19:35;13.32;;;2.92;;
62014;SDS011;47970;52.396;9.586;2023-04-25T05:22:01;24.92;;;3.10;;
62014;SDS011;47970;52.396;9.586;2023-04-25T05:24:26;11.35;;;2.15;;
62014;SDS011;47970;52.396;9.586;2023-04-25T05:26:52;15.20;;;3.03;;
62014;SDS011;47970;52.396;9.586;2023-04-25T05:29:18;16.33;;;2.55;;
62014;SDS011;47970;52.396;9.586;2023-04-25T05:31:43;16.30;;;3.13;;
62014;SDS011;47970;52.396;9.586;2023-04-25T05:34:08;20.92;;;2.85;;
62014;SDS011;47970;52.396;9.586;2023-04-25T05:36:34;12.82;;;2.15;;
62014;SDS011;47970;52.396;9.586;2023-04-25T05:38:59;14.13;;;2.70;;
62014;SDS011;47970;52.396;9.586;2023-04-25T05:41:24;21.23;;;2.53;;
62014;SDS011;47970;52.396;9.586;2023-04-25T05:43:50;18.47;;;2.77;;
62014;SDS011;47970;52.396;9.586;2023-04-25T05:46:15;15.80;;;2.50;;
62014;SDS011;47970;52.396;9.586;2023-04-25T05:48:43;17.65;;;3.13;;
62014;SDS011;47970;52.396;9.586;2023-04-25T05:51:08;12.32;;;2.45;;
62014;SDS011;47970;52.396;9.586;2023-04-25T05:53:34;11.43;;;2.13;;
62014;SDS011;47970;52.396;9.586;2023-04-25T05:55:59;18.42;;;2.88;;
62014;SDS011;47970;52.396;9.586;2023-04-25T05:58:24;10.77;;;2.47;;
62014;SDS011;47970;52.396;9.586;2023-04-25T06:00:49;11.43;;;2.33;;
62014;SDS011;47970;52.396;9.586;2023-04-25T06:03:15;15.80;;;3.28;;
62014;SDS011;47970;52.396;9.586;2023-04-25T06:05:41;21.70;;;3.10;;
62014;SDS011;47970;52.396;9.586;2023-04-25T06:08:06;16.05;;;2.42;;
62014;SDS011;47970;52.396;9.586;2023-04-25T06:10:31;15.93;;;3.13;;
62014;SDS011;47970;52.396;9.586;2023-04-25T06:12:56;16.83;;;2.90;;
62014;SDS011;47970;52.396;9.586;2023-04-25T06:15:22;14.93;;;2.13;;
62014;SDS011;47970;52.396;9.586;2023-04-25T06:17:47;15.47;;;2.73;;
62014;SDS011;47970;52.396;9.586;2023-04-25T06:20:13;14.93;;;2.75;;
62014;SDS011;47970;52.396;9.586;2023-04-25T06:22:38;11.53;;;1.97;;
62014;SDS011;47970;52.396;9.586;2023-04-25T06:25:04;19.13;;;2.20;;
62014;SDS011;47970;52.396;9.586;2023-04-25T06:27:29;12.60;;;3.35;;
62014;SDS011;47970;52.396;9.586;2023-04-25T06:29:54;17.23;;;3.08;;
62014;SDS011;47970;52.396;9.586;2023-04-25T06:32:20;18.17;;;3.07;;
62014;SDS011;47970;52.396;9.586;2023-04-25T06:34:45;10.33;;;2.17;;
62014;SDS011;47970;52.396;9.586;2023-04-25T06:37:10;15.43;;;2.78;;
62014;SDS011;47970;52.396;9.586;2023-04-25T06:39:35;12.63;;;2.47;;
62014;SDS011;47970;52.396;9.586;2023-04-25T06:42:01;15.10;;;3.13;;
62014;SDS011;47970;52.396;9.586;2023-04-25T06:44:26;23.10;;;2.93;;
62014;SDS011;47970;52.396;9.586;2023-04-25T06:46:53;13.43;;;2.67;;
62014;SDS011;47970;52.396;9.586;2023-04-25T06:49:18;13.50;;;2.30;;
62014;SDS011;47970;52.396;9.586;2023-04-25T06:51:44;12.68;;;1.77;;
62014;SDS011;47970;52.396;9.586;2023-04-25T06:54:09;14.70;;;1.88;;
62014;SDS011;47970;52.396;9.586;2023-04-25T06:56:34;17.02;;;2.38;;
62014;SDS011;47970;52.396;9.586;2023-04-25T06:58:59;23.90;;;2.63;;
62014;SDS011;47970;52.396;9.586;2023-04-25T07:01:25;10.57;;;1.80;;
62014;SDS011;47970;52.396;9.586;2023-04-25T07:03:50;12.97;;;2.03;;
62014;SDS011;47970;52.396;9.586;2023-04-25T07:06:16;9.43;;;2.03;;
62014;SDS011;47970;52.396;9.586;2023-04-25T07:08:41;8.13;;;1.83;;
62014;SDS011;47970;52.396;9.586;2023-04-25T07:11:06;11.73;;;1.83;;
62014;SDS011;47970;52.396;9.586;2023-04-25T07:13:31;12.27;;;1.83;;
62014;SDS011;47970;52.396;9.586;2023-04-25T07:15:56;17.40;;;2.33;;
62014;SDS011;47970;52.396;9.586;2023-04-25T07:18:22;13.47;;;1.80;;
62014;SDS011;47970;52.396;9.586;2023-04-25T07:20:47;19.30;;;2.17;;
62014;SDS011;47970;52.396;9.586;2023-04-25T07:23:12;7.53;;;1.60;;
62014;SDS011;47970;52.396;9.586;2023-04-25T07:25:37;5.47;;;1.57;;
62014;SDS011;47970;52.396;9.586;2023-04-25T07:28:03;14.63;;;1.92;;
62014;SDS011;47970;52.396;9.586;2023-04-25T07:30:28;24.65;;;2.42;;
62014;SDS011;47970;52.396;9.586;2023-04-25T07:32:53;8.60;;;1.88;;
62014;SDS011;47970;52.396;9.586;2023-04-25T07:35:19;11.70;;;1.53;;
62014;SDS011;47970;52.396;9.586;2023-04-25T07:37:44;13.38;;;1.70;;
62014;SDS011;47970;52.396;9.586;2023-04-25T07:40:09;13.20;;;1.30;;
62014;SDS011;47970;52.396;9.586;2023-04-25T07:42:34;8.60;;;1.45;;
62014;SDS011;47970;52.396;9.586;2023-04-25T07:45:00;10.00;;;1.63;;
62014;SDS011;47970;52.396;9.586;2023-04-25T07:47:25;15.13;;;1.92;;
62014;SDS011;47970;52.396;9.586;2023-04-25T07:49:51;9.48;;;2.50;;
62014;SDS011;47970;52.396;9.586;2023-04-25T07:52:16;8.02;;;1.92;;
62014;SDS011;47970;52.396;9.586;2023-04-25T07:54:41;10.20;;;1.75;;
62014;SDS011;47970;52.396;9.586;2023-04-25T07:57:06;7.33;;;1.73;;
62014;SDS011;47970;52.396;9.586;2023-04-25T07:59:32;6.75;;;1.63;;
62014;SDS011;47970;52.396;9.586;2023-04-25T08:01:57;10.25;;;1.63;;
62014;SDS011;47970;52.396;9.586;2023-04-25T08:04:23;8.63;;;1.77;;
62014;SDS011;47970;52.396;9.586;2023-04-25T08:06:48;10.70;;;2.17;;
62014;SDS011;47970;52.396;9.586;2023-04-25T08:09:13;7.07;;;1.85;;
62014;SDS011;47970;52.396;9.586;2023-04-25T08:11:38;10.17;;;1.63;;
62014;SDS011;47970;52.396;9.586;2023-04-25T08:14:04;10.50;;;1.35;;
62014;SDS011;47970;52.396;9.586;2023-04-25T08:16:29;7.15;;;1.48;;
62014;SDS011;47970;52.396;9.586;2023-04-25T08:18:55;8.45;;;1.50;;
62014;SDS011;47970;52.396;9.586;2023-04-25T08:21:20;5.28;;;1.67;;
62014;SDS011;47970;52.396;9.586;2023-04-25T08:23:46;11.02;;;1.55;;
62014;SDS011;47970;52.396;9.586;2023-04-25T08:26:11;6.90;;;1.30;;
62014;SDS011;47970;52.396;9.586;2023-04-25T08:28:36;7.38;;;1.23;;
62014;SDS011;47970;52.396;9.586;2023-04-25T08:31:02;7.95;;;1.15;;
62014;SDS011;47970;52.396;9.586;2023-04-25T08:33:27;7.53;;;1.30;;
62014;SDS011;47970;52.396;9.586;2023-04-25T08:35:52;6.67;;;2.20;;
62014;SDS011;47970;52.396;9.586;2023-04-25T08:38:17;7.72;;;1.33;;
62014;SDS011;47970;52.396;9.586;2023-04-25T08:40:43;6.38;;;1.30;;
62014;SDS011;47970;52.396;9.586;2023-04-25T08:43:08;6.68;;;1.67;;
62014;SDS011;47970;52.396;9.586;2023-04-25T08:45:38;13.70;;;1.60;;
62014;SDS011;47970;52.396;9.586;2023-04-25T08:48:04;5.93;;;1.45;;
62014;SDS011;47970;52.396;9.586;2023-04-25T08:50:30;7.28;;;1.75;;
62014;SDS011;47970;52.396;9.586;2023-04-25T08:52:55;6.97;;;1.13;;
62014;SDS011;47970;52.396;9.586;2023-04-25T08:55:24;5.20;;;1.23;;
62014;SDS011;47970;52.396;9.586;2023-04-25T08:57:50;8.65;;;1.35;;
62014;SDS011;47970;52.396;9.586;2023-04-25T09:00:17;7.15;;;1.30;;
62014;SDS011;47970;52.396;9.586;2023-04-25T09:02:43;3.55;;;0.90;;
62014;SDS011;47970;52.396;9.586;2023-04-25T09:05:08;7.05;;;1.13;;
62014;SDS011;47970;52.396;9.586;2023-04-25T09:07:34;3.85;;;1.20;;
62014;SDS011;47970;52.396;9.586;2023-04-25T09:09:59;5.17;;;1.10;;
62014;SDS011;47970;52.396;9.586;2023-04-25T09:12:28;8.00;;;1.00;;
62014;SDS011;47970;52.396;9.586;2023-04-25T09:15:10;8.55;;;1.13;;
62014;SDS011;47970;52.396;9.586;2023-04-25T09:17:36;6.13;;;1.73;;
62014;SDS011;47970;52.396;9.586;2023-04-25T09:20:08;9.80;;;1.10;;
62014;SDS011;47970;52.396;9.586;2023-04-25T09:22:34;5.82;;;1.23;;
62014;SDS011;47970;52.396;9.586;2023-04-25T09:25:02;6.43;;;1.30;;
62014;SDS011;47970;52.396;9.586;2023-04-25T09:27:27;6.95;;;1.38;;
62014;SDS011;47970;52.396;9.586;2023-04-25T09:29:56;7.53;;;1.37;;
62014;SDS011;47970;52.396;9.586;2023-04-25T09:32:22;4.10;;;1.00;;
62014;SDS011;47970;52.396;9.586;2023-04-25T09:34:51;5.25;;;1.15;;
62014;SDS011;47970;52.396;9.586;2023-04-25T09:37:24;6.03;;;1.20;;
62014;SDS011;47970;52.396;9.586;2023-04-25T09:39:51;5.50;;;1.50;;
62014;SDS011;47970;52.396;9.586;2023-04-25T09:42:16;5.22;;;0.95;;
62014;SDS011;47970;52.396;9.586;2023-04-25T09:44:45;10.30;;;1.58;;
62014;SDS011;47970;52.396;9.586;2023-04-25T09:47:11;4.70;;;0.93;;
62014;SDS011;47970;52.396;9.586;2023-04-25T09:49:38;6.72;;;1.23;;
62014;SDS011;47970;52.396;9.586;2023-04-25T09:52:04;6.10;;;1.00;;
62014;SDS011;47970;52.396;9.586;2023-04-25T09:54:29;5.53;;;1.10;;
62014;SDS011;47970;52.396;9.586;2023-04-25T09:56:54;7.73;;;1.30;;
62014;SDS011;47970;52.396;9.586;2023-04-25T09:59:20;2.72;;;1.13;;
62014;SDS011;47970;52.396;9.586;2023-04-25T10:01:46;7.03;;;1.25;;
62014;SDS011;47970;52.396;9.586;2023-04-25T10:04:12;5.32;;;1.08;;
62014;SDS011;47970;52.396;9.586;2023-04-25T10:06:41;12.13;;;1.40;;
62014;SDS011;47970;52.396;9.586;2023-04-25T10:09:08;4.40;;;1.20;;
62014;SDS011;47970;52.396;9.586;2023-04-25T10:11:33;3.13;;;1.23;;
62014;SDS011;47970;52.396;9.586;2023-04-25T10:13:59;7.60;;;1.25;;
62014;SDS011;47970;52.396;9.586;2023-04-25T10:16:25;6.35;;;1.35;;
62014;SDS011;47970;52.396;9.586;2023-04-25T10:18:50;7.93;;;1.10;;
62014;SDS011;47970;52.396;9.586;2023-04-25T10:21:15;6.37;;;1.23;;
62014;SDS011;47970;52.396;9.586;2023-04-25T10:23:41;4.70;;;1.20;;
62014;SDS011;47970;52.396;9.586;2023-04-25T10:26:07;10.70;;;1.40;;
62014;SDS011;47970;52.396;9.586;2023-04-25T10:31:24;7.40;;;1.20;;
62014;SDS011;47970;52.396;9.586;2023-04-25T10:33:50;11.75;;;1.35;;
62014;SDS011;47970;52.396;9.586;2023-04-25T10:36:19;5.50;;;0.85;;
62014;SDS011;47970;52.396;9.586;2023-04-25T10:38:46;5.47;;;1.10;;
62014;SDS011;47970;52.396;9.586;2023-04-25T10:41:12;6.68;;;2.05;;
62014;SDS011;47970;52.396;9.586;2023-04-25T10:43:41;7.18;;;1.45;;
62014;SDS011;47970;52.396;9.586;2023-04-25T10:46:14;8.63;;;1.58;;
62014;SDS011;47970;52.396;9.586;2023-04-25T10:48:43;4.00;;;1.15;;
62014;SDS011;47970;52.396;9.586;2023-04-25T10:51:10;5.10;;;1.02;;
62014;SDS011;47970;52.396;9.586;2023-04-25T10:53:36;6.18;;;1.60;;
62014;SDS011;47970;52.396;9.586;2023-04-25T10:56:09;8.63;;;1.40;;
62014;SDS011;47970;52.396;9.586;2023-04-25T10:58:34;5.57;;;1.25;;
62014;SDS011;47970;52.396;9.586;2023-04-25T11:01:00;5.53;;;1.33;;
62014;SDS011;47970;52.396;9.586;2023-04-25T11:03:25;8.82;;;1.30;;
62014;SDS011;47970;52.396;9.586;2023-04-25T11:05:51;5.18;;;1.40;;
62014;SDS011;47970;52.396;9.586;2023-04-25T11:08:17;12.38;;;1.80;;
62014;SDS011;47970;52.396;9.586;2023-04-25T11:10:47;8.70;;;1.40;;
62014;SDS011;47970;52.396;9.586;2023-04-25T11:13:12;7.18;;;1.48;;
62014;SDS011;47970;52.396;9.586;2023-04-25T11:15:38;4.27;;;1.27;;
62014;SDS011;47970;52.396;9.586;2023-04-25T11:18:03;5.78;;;1.80;;
62014;SDS011;47970;52.396;9.586;2023-04-25T11:20:28;2.85;;;0.98;;
62014;SDS011;47970;52.396;9.586;2023-04-25T11:22:53;7.53;;;1.48;;
62014;SDS011;47970;52.396;9.586;2023-04-25T11:25:22;8.50;;;1.70;;
62014;SDS011;47970;52.396;9.586;2023-04-25T11:27:51;2.78;;;0.98;;
62014;SDS011;47970;52.396;9.586;2023-04-25T11:30:17;4.78;;;0.93;;
62014;SDS011;47970;52.396;9.586;2023-04-25T11:32:43;5.32;;;1.20;;
62014;SDS011;47970;52.396;9.586;2023-04-25T11:35:08;6.65;;;1.13;;
62014;SDS011;47970;52.396;9.586;2023-04-25T11:37:34;7.57;;;1.23;;
62014;SDS011;47970;52.396;9.586;2023-04-25T11:39:59;5.87;;;1.53;;
62014;SDS011;47970;52.396;9.586;2023-04-25T11:42:25;7.13;;;2.17;;
62014;SDS011;47970;52.396;9.586;2023-04-25T11:44:50;6.10;;;1.52;;
62014;SDS011;47970;52.396;9.586;2023-04-25T11:47:15;8.77;;;1.40;;
62014;SDS011;47970;52.396;9.586;2023-04-25T11:49:41;10.03;;;1.87;;
62014;SDS011;47970;52.396;9.586;2023-04-25T11:52:06;7.78;;;1.30;;
62014;SDS011;47970;52.396;9.586;2023-04-25T11:54:34;6.40;;;1.13;;
62014;SDS011;47970;52.396;9.586;2023-04-25T11:57:00;4.15;;;0.88;;
62014;SDS011;47970;52.396;9.586;2023-04-25T11:59:26;7.85;;;1.15;;
62014;SDS011;47970;52.396;9.586;2023-04-25T12:01:51;5.32;;;0.75;;
62014;SDS011;47970;52.396;9.586;2023-04-25T12:06:43;1.30;;;0.70;;
62014;SDS011;47970;52.396;9.586;2023-04-25T12:09:09;7.13;;;1.15;;
62014;SDS011;47970;52.396;9.586;2023-04-25T12:11:41;5.30;;;0.80;;
62014;SDS011;47970;52.396;9.586;2023-04-25T12:14:07;3.33;;;0.65;;
62014;SDS011;47970;52.396;9.586;2023-04-25T12:16:40;3.92;;;0.73;;
62014;SDS011;47970;52.396;9.586;2023-04-25T12:19:05;3.30;;;0.82;;
62014;SDS011;47970;52.396;9.586;2023-04-25T12:21:31;2.80;;;0.77;;
62014;SDS011;47970;52.396;9.586;2023-04-25T12:24:07;2.33;;;0.65;;
62014;SDS011;47970;52.396;9.586;2023-04-25T12:26:49;4.80;;;1.08;;
62014;SDS011;47970;52.396;9.586;2023-04-25T12:29:15;1.73;;;0.80;;
62014;SDS011;47970;52.396;9.586;2023-04-25T12:31:41;6.47;;;1.25;;
62014;SDS011;47970;52.396;9.586;2023-04-25T12:34:06;1.63;;;0.57;;
62014;SDS011;47970;52.396;9.586;2023-04-25T12:36:32;3.33;;;0.70;;
62014;SDS011;47970;52.396;9.586;2023-04-25T12:38:57;2.80;;;0.40;;
62014;SDS011;47970;52.396;9.586;2023-04-25T12:41:28;1.75;;;0.45;;
62014;SDS011;47970;52.396;9.586;2023-04-25T12:43:54;1.33;;;0.40;;
62014;SDS011;47970;52.396;9.586;2023-04-25T12:46:19;1.63;;;0.40;;
62014;SDS011;47970;52.396;9.586;2023-04-25T12:48:44;2.85;;;0.77;;
62014;SDS011;47970;52.396;9.586;2023-04-25T12:51:09;4.53;;;0.80;;
62014;SDS011;47970;52.396;9.586;2023-04-25T12:53:35;6.40;;;0.80;;
62014;SDS011;47970;52.396;9.586;2023-04-25T12:56:02;2.58;;;0.90;;
62014;SDS011;47970;52.396;9.586;2023-04-25T12:58:27;2.80;;;0.73;;
62014;SDS011;47970;52.396;9.586;2023-04-25T13:00:52;3.40;;;1.00;;
62014;SDS011;47970;52.396;9.586;2023-04-25T13:03:18;4.13;;;0.95;;
62014;SDS011;47970;52.396;9.586;2023-04-25T13:05:43;1.17;;;0.68;;
62014;SDS011;47970;52.396;9.586;2023-04-25T13:08:08;3.67;;;1.00;;
62014;SDS011;47970;52.396;9.586;2023-04-25T13:10:34;2.97;;;1.00;;
62014;SDS011;47970;52.396;9.586;2023-04-25T13:13:00;2.95;;;1.10;;
62014;SDS011;47970;52.396;9.586;2023-04-25T13:15:26;7.47;;;1.17;;
62014;SDS011;47970;52.396;9.586;2023-04-25T13:17:51;7.72;;;1.23;;
62014;SDS011;47970;52.396;9.586;2023-04-25T13:20:16;4.53;;;0.90;;
62014;SDS011;47970;52.396;9.586;2023-04-25T13:22:43;9.35;;;3.38;;
62014;SDS011;47970;52.396;9.586;2023-04-25T13:25:10;6.78;;;1.60;;
62014;SDS011;47970;52.396;9.586;2023-04-25T13:27:37;2.40;;;1.20;;
62014;SDS011;47970;52.396;9.586;2023-04-25T13:30:04;4.95;;;1.27;;
62014;SDS011;47970;52.396;9.586;2023-04-25T13:32:35;2.58;;;0.82;;
62014;SDS011;47970;52.396;9.586;2023-04-25T13:35:01;3.20;;;1.90;;
62014;SDS011;47970;52.396;9.586;2023-04-25T13:37:27;1.95;;;1.00;;
62014;SDS011;47970;52.396;9.586;2023-04-25T13:39:52;7.78;;;1.23;;
62014;SDS011;47970;52.396;9.586;2023-04-25T13:42:18;7.43;;;1.00;;
62014;SDS011;47970;52.396;9.586;2023-04-25T13:44:43;4.80;;;1.20;;
62014;SDS011;47970;52.396;9.586;2023-04-25T13:47:09;4.13;;;1.00;;
62014;SDS011;47970;52.396;9.586;2023-04-25T13:49:34;5.30;;;1.00;;
62014;SDS011;47970;52.396;9.586;2023-04-25T13:51:59;6.35;;;1.00;;
62014;SDS011;47970;52.396;9.586;2023-04-25T13:54:25;7.07;;;1.33;;
62014;SDS011;47970;52.396;9.586;2023-04-25T13:56:50;4.65;;;1.30;;
62014;SDS011;47970;52.396;9.586;2023-04-25T13:59:16;5.85;;;1.65;;
62014;SDS011;47970;52.396;9.586;2023-04-25T14:01:42;4.57;;;1.00;;
62014;SDS011;47970;52.396;9.586;2023-04-25T14:04:07;4.60;;;1.17;;
62014;SDS011;47970;52.396;9.586;2023-04-25T14:06:32;8.57;;;1.30;;
62014;SDS011;47970;52.396;9.586;2023-04-25T14:08:58;6.70;;;2.30;;
62014;SDS011;47970;52.396;9.586;2023-04-25T14:11:25;13.32;;;4.68;;
62014;SDS011;47970;52.396;9.586;2023-04-25T14:13:50;9.93;;;2.67;;
62014;SDS011;47970;52.396;9.586;2023-04-25T14:16:16;10.57;;;4.77;;
62014;SDS011;47970;52.396;9.586;2023-04-25T14:18:41;5.63;;;1.83;;
62014;SDS011;47970;52.396;9.586;2023-04-25T14:21:06;4.07;;;1.63;;
62014;SDS011;47970;52.396;9.586;2023-04-25T14:23:31;8.75;;;1.42;;
62014;SDS011;47970;52.396;9.586;2023-04-25T14:25:57;3.13;;;1.30;;
62014;SDS011;47970;52.396;9.586;2023-04-25T14:28:22;1.88;;;0.80;;
62014;SDS011;47970;52.396;9.586;2023-04-25T14:30:47;4.20;;;0.93;;
62014;SDS011;47970;52.396;9.586;2023-04-25T14:33:12;9.10;;;1.20;;
62014;SDS011;47970;52.396;9.586;2023-04-25T14:35:38;5.95;;;1.20;;
62014;SDS011;47970;52.396;9.586;2023-04-25T14:38:04;11.43;;;1.13;;